sensor_id;sensor_type;location;lat;lon;timestamp;temperature;humidity
11540;DHT22;5826;54.756;9.192;2023-03-03T00:02:19;4.30;99.90
11540;DHT22;5826;54.756;9.192;2023-03-03T00:04:44;4.30;99.90
11540;DHT22;5826;54.756;9.192;2023-03-03T00:07:10;4.30;99.90
11540;DHT22;5826;54.756;9.192;2023-03-03T00:09:36;4.30;99.90
11540;DHT22;5826;54.756;9.192;2023-03-03T00:12:20;4.40;99.90
11540;DHT22;5826;54.756;9.192;2023-03-03T00:14:47;4.40;99.90
11540;DHT22;5826;54.756;9.192;2023-03-03T00:17:22;4.40;99.90
11540;DHT22;5826;54.756;9.192;2023-03-03T00:19:48;4.40;99.90
11540;DHT22;5826;54.756;9.192;2023-03-03T00:22:28;4.40;99.90
11540;DHT22;5826;54.756;9.192;2023-03-03T00:24:57;4.40;99.90
11540;DHT22;5826;54.756;9.192;2023-03-03T00:27:29;4.30;99.90
11540;DHT22;5826;54.756;9.192;2023-03-03T00:29:57;4.30;99.90
11540;DHT22;5826;54.756;9.192;2023-03-03T00:34:51;4.20;99.90
11540;DHT22;5826;54.756;9.192;2023-03-03T00:37:32;4.10;99.90
11540;DHT22;5826;54.756;9.192;2023-03-03T00:40:46;4.00;99.90
11540;DHT22;5826;54.756;9.192;2023-03-03T00:43:25;4.00;99.90
11540;DHT22;5826;54.756;9.192;2023-03-03T00:45:56;3.90;99.90
11540;DHT22;5826;54.756;9.192;2023-03-03T00:48:28;3.90;99.90
11540;DHT22;5826;54.756;9.192;2023-03-03T00:50:58;3.80;99.90
11540;DHT22;5826;54.756;9.192;2023-03-03T00:53:26;3.80;99.90
11540;DHT22;5826;54.756;9.192;2023-03-03T00:55:52;3.80;99.90
11540;DHT22;5826;54.756;9.192;2023-03-03T00:58:19;3.70;99.90
11540;DHT22;5826;54.756;9.192;2023-03-03T01:00:47;3.70;99.90
11540;DHT22;5826;54.756;9.192;2023-03-03T01:03:19;3.70;99.90
11540;DHT22;5826;54.756;9.192;2023-03-03T01:05:46;3.70;99.90
11540;DHT22;5826;54.756;9.192;2023-03-03T01:08:12;3.70;99.90
11540;DHT22;5826;54.756;9.192;2023-03-03T01:10:42;3.60;99.90
11540;DHT22;5826;54.756;9.192;2023-03-03T01:13:10;3.60;99.90
11540;DHT22;5826;54.756;9.192;2023-03-03T01:15:37;3.60;99.90
11540;DHT22;5826;54.756;9.192;2023-03-03T01:18:03;3.60;99.90
11540;DHT22;5826;54.756;9.192;2023-03-03T01:20:29;3.60;99.90
11540;DHT22;5826;54.756;9.192;2023-03-03T01:22:54;3.60;99.90
11540;DHT22;5826;54.756;9.192;2023-03-03T01:25:20;3.60;99.90
11540;DHT22;5826;54.756;9.192;2023-03-03T01:27:45;3.80;99.90
11540;DHT22;5826;54.756;9.192;2023-03-03T01:30:11;3.80;99.90
11540;DHT22;5826;54.756;9.192;2023-03-03T01:32:37;3.90;99.90
11540;DHT22;5826;54.756;9.192;2023-03-03T01:35:02;3.90;99.90
11540;DHT22;5826;54.756;9.192;2023-03-03T01:37:28;3.90;99.90
11540;DHT22;5826;54.756;9.192;2023-03-03T01:39:54;4.00;99.90
11540;DHT22;5826;54.756;9.192;2023-03-03T01:42:20;4.00;99.90
11540;DHT22;5826;54.756;9.192;2023-03-03T01:44:46;4.00;99.90
11540;DHT22;5826;54.756;9.192;2023-03-03T01:47:26;4.00;99.90
11540;DHT22;5826;54.756;9.192;2023-03-03T01:49:59;4.10;99.90
11540;DHT22;5826;54.756;9.192;2023-03-03T01:52:33;4.10;99.90
11540;DHT22;5826;54.756;9.192;2023-03-03T01:55:14;4.10;99.90
11540;DHT22;5826;54.756;9.192;2023-03-03T01:57:49;4.10;99.90
11540;DHT22;5826;54.756;9.192;2023-03-03T02:00:17;4.70;99.90
11540;DHT22;5826;54.756;9.192;2023-03-03T02:02:43;4.10;99.90
11540;DHT22;5826;54.756;9.192;2023-03-03T02:05:09;4.10;99.90
11540;DHT22;5826;54.756;9.192;2023-03-03T02:07:35;4.70;99.90
11540;DHT22;5826;54.756;9.192;2023-03-03T02:10:11;4.00;99.90
11540;DHT22;5826;54.756;9.192;2023-03-03T02:12:44;4.00;99.90
11540;DHT22;5826;54.756;9.192;2023-03-03T02:15:23;3.90;99.90
11540;DHT22;5826;54.756;9.192;2023-03-03T02:17:52;3.90;99.90
11540;DHT22;5826;54.756;9.192;2023-03-03T02:28:31;4.00;99.90
11540;DHT22;5826;54.756;9.192;2023-03-03T02:30:58;4.00;99.90
11540;DHT22;5826;54.756;9.192;2023-03-03T02:33:25;3.90;99.90
11540;DHT22;5826;54.756;9.192;2023-03-03T02:35:51;3.90;99.90
11540;DHT22;5826;54.756;9.192;2023-03-03T02:38:36;4.50;99.90
11540;DHT22;5826;54.756;9.192;2023-03-03T02:44:08;3.80;99.90
11540;DHT22;5826;54.756;9.192;2023-03-03T02:46:40;3.80;99.90
11540;DHT22;5826;54.756;9.192;2023-03-03T02:49:07;3.80;99.90
11540;DHT22;5826;54.756;9.192;2023-03-03T02:51:34;3.80;99.90
11540;DHT22;5826;54.756;9.192;2023-03-03T02:54:00;3.80;99.90
11540;DHT22;5826;54.756;9.192;2023-03-03T02:56:26;3.90;99.90
11540;DHT22;5826;54.756;9.192;2023-03-03T02:58:52;3.60;99.90
11540;DHT22;5826;54.756;9.192;2023-03-03T03:01:17;3.50;99.90
11540;DHT22;5826;54.756;9.192;2023-03-03T03:03:43;3.30;99.90
11540;DHT22;5826;54.756;9.192;2023-03-03T03:06:09;3.40;99.90
11540;DHT22;5826;54.756;9.192;2023-03-03T03:08:35;3.30;99.90
11540;DHT22;5826;54.756;9.192;2023-03-03T03:11:00;3.20;99.90
11540;DHT22;5826;54.756;9.192;2023-03-03T03:13:26;3.30;99.90
11540;DHT22;5826;54.756;9.192;2023-03-03T03:15:52;3.30;99.90
11540;DHT22;5826;54.756;9.192;2023-03-03T03:18:18;3.30;99.90
11540;DHT22;5826;54.756;9.192;2023-03-03T03:20:44;3.30;99.90
11540;DHT22;5826;54.756;9.192;2023-03-03T03:23:10;3.20;99.90
11540;DHT22;5826;54.756;9.192;2023-03-03T03:25:36;3.20;99.90
11540;DHT22;5826;54.756;9.192;2023-03-03T03:28:07;3.20;99.90
11540;DHT22;5826;54.756;9.192;2023-03-03T03:30:34;3.20;99.90
11540;DHT22;5826;54.756;9.192;2023-03-03T03:33:00;3.20;99.90
11540;DHT22;5826;54.756;9.192;2023-03-03T03:35:25;3.10;99.90
11540;DHT22;5826;54.756;9.192;2023-03-03T03:37:51;3.10;99.90
11540;DHT22;5826;54.756;9.192;2023-03-03T03:40:16;3.10;99.90
11540;DHT22;5826;54.756;9.192;2023-03-03T03:42:42;3.20;99.90
11540;DHT22;5826;54.756;9.192;2023-03-03T03:45:08;3.00;99.90
11540;DHT22;5826;54.756;9.192;2023-03-03T03:47:33;3.00;99.90
11540;DHT22;5826;54.756;9.192;2023-03-03T03:49:59;3.00;99.90
11540;DHT22;5826;54.756;9.192;2023-03-03T03:52:24;3.10;99.90
11540;DHT22;5826;54.756;9.192;2023-03-03T03:54:50;3.10;99.90
11540;DHT22;5826;54.756;9.192;2023-03-03T03:57:15;3.00;99.90
11540;DHT22;5826;54.756;9.192;2023-03-03T03:59:41;3.00;99.90
11540;DHT22;5826;54.756;9.192;2023-03-03T04:02:06;3.10;99.90
11540;DHT22;5826;54.756;9.192;2023-03-03T04:04:32;3.10;99.90
11540;DHT22;5826;54.756;9.192;2023-03-03T04:06:57;3.10;99.90
11540;DHT22;5826;54.756;9.192;2023-03-03T04:09:24;3.00;99.90
11540;DHT22;5826;54.756;9.192;2023-03-03T04:11:49;3.30;99.90
11540;DHT22;5826;54.756;9.192;2023-03-03T04:14:15;2.90;99.90
11540;DHT22;5826;54.756;9.192;2023-03-03T04:16:40;2.90;99.90
11540;DHT22;5826;54.756;9.192;2023-03-03T04:19:06;2.90;99.90
11540;DHT22;5826;54.756;9.192;2023-03-03T04:21:31;3.00;99.90
11540;DHT22;5826;54.756;9.192;2023-03-03T04:23:57;2.90;99.90
11540;DHT22;5826;54.756;9.192;2023-03-03T04:26:22;2.90;99.90
11540;DHT22;5826;54.756;9.192;2023-03-03T04:28:48;2.90;99.90
11540;DHT22;5826;54.756;9.192;2023-03-03T04:31:13;2.90;99.90
11540;DHT22;5826;54.756;9.192;2023-03-03T04:33:39;3.40;99.90
11540;DHT22;5826;54.756;9.192;2023-03-03T04:36:04;3.10;99.90
11540;DHT22;5826;54.756;9.192;2023-03-03T04:38:31;2.90;99.90
11540;DHT22;5826;54.756;9.192;2023-03-03T04:40:57;2.90;99.90
11540;DHT22;5826;54.756;9.192;2023-03-03T04:43:22;2.90;99.90
11540;DHT22;5826;54.756;9.192;2023-03-03T04:45:48;3.00;99.90
11540;DHT22;5826;54.756;9.192;2023-03-03T04:48:13;3.00;99.90
11540;DHT22;5826;54.756;9.192;2023-03-03T04:50:40;3.00;99.90
11540;DHT22;5826;54.756;9.192;2023-03-03T04:53:05;3.00;99.90
11540;DHT22;5826;54.756;9.192;2023-03-03T04:55:31;3.00;99.90
11540;DHT22;5826;54.756;9.192;2023-03-03T04:57:56;3.60;99.90
11540;DHT22;5826;54.756;9.192;2023-03-03T05:00:22;3.00;99.90
11540;DHT22;5826;54.756;9.192;2023-03-03T05:02:48;3.00;99.90
11540;DHT22;5826;54.756;9.192;2023-03-03T05:05:13;3.10;99.90
11540;DHT22;5826;54.756;9.192;2023-03-03T05:07:39;3.50;99.90
11540;DHT22;5826;54.756;9.192;2023-03-03T05:10:06;3.20;99.90
11540;DHT22;5826;54.756;9.192;2023-03-03T05:12:32;3.20;99.90
11540;DHT22;5826;54.756;9.192;2023-03-03T05:14:57;3.20;99.90
11540;DHT22;5826;54.756;9.192;2023-03-03T05:17:23;3.20;99.90
11540;DHT22;5826;54.756;9.192;2023-03-03T05:19:48;3.20;99.90
11540;DHT22;5826;54.756;9.192;2023-03-03T05:22:14;3.20;99.90
11540;DHT22;5826;54.756;9.192;2023-03-03T05:24:39;3.20;99.90
11540;DHT22;5826;54.756;9.192;2023-03-03T05:27:07;3.20;99.90
11540;DHT22;5826;54.756;9.192;2023-03-03T05:29:32;3.30;99.90
11540;DHT22;5826;54.756;9.192;2023-03-03T05:31:58;3.20;99.90
11540;DHT22;5826;54.756;9.192;2023-03-03T05:34:23;3.20;99.90
11540;DHT22;5826;54.756;9.192;2023-03-03T05:36:50;3.30;99.90
11540;DHT22;5826;54.756;9.192;2023-03-03T05:39:15;3.30;99.90
11540;DHT22;5826;54.756;9.192;2023-03-03T05:41:41;3.30;99.90
11540;DHT22;5826;54.756;9.192;2023-03-03T05:44:07;3.30;99.90
11540;DHT22;5826;54.756;9.192;2023-03-03T05:46:32;3.30;99.90
11540;DHT22;5826;54.756;9.192;2023-03-03T05:48:58;3.30;99.90
11540;DHT22;5826;54.756;9.192;2023-03-03T05:51:24;3.30;99.90
11540;DHT22;5826;54.756;9.192;2023-03-03T05:53:49;3.40;99.90
11540;DHT22;5826;54.756;9.192;2023-03-03T05:56:14;3.40;99.90
11540;DHT22;5826;54.756;9.192;2023-03-03T05:58:40;3.40;99.90
11540;DHT22;5826;54.756;9.192;2023-03-03T06:01:05;3.40;99.90
11540;DHT22;5826;54.756;9.192;2023-03-03T06:03:31;3.50;99.90
11540;DHT22;5826;54.756;9.192;2023-03-03T06:05:57;3.50;99.90
11540;DHT22;5826;54.756;9.192;2023-03-03T06:08:23;3.50;99.90
11540;DHT22;5826;54.756;9.192;2023-03-03T06:10:48;3.50;99.90
11540;DHT22;5826;54.756;9.192;2023-03-03T06:13:14;3.50;99.90
11540;DHT22;5826;54.756;9.192;2023-03-03T06:15:39;3.50;99.90
11540;DHT22;5826;54.756;9.192;2023-03-03T06:18:05;3.50;99.90
11540;DHT22;5826;54.756;9.192;2023-03-03T06:20:30;3.50;99.90
11540;DHT22;5826;54.756;9.192;2023-03-03T06:22:57;3.50;99.90
11540;DHT22;5826;54.756;9.192;2023-03-03T06:25:22;3.50;99.90
11540;DHT22;5826;54.756;9.192;2023-03-03T06:27:48;4.20;99.90
11540;DHT22;5826;54.756;9.192;2023-03-03T06:30:14;3.80;99.90
11540;DHT22;5826;54.756;9.192;2023-03-03T06:32:39;3.60;99.90
11540;DHT22;5826;54.756;9.192;2023-03-03T06:35:05;3.60;99.90
11540;DHT22;5826;54.756;9.192;2023-03-03T06:37:30;3.70;99.90
11540;DHT22;5826;54.756;9.192;2023-03-03T06:39:56;3.70;99.90
11540;DHT22;5826;54.756;9.192;2023-03-03T06:42:22;3.70;99.90
11540;DHT22;5826;54.756;9.192;2023-03-03T06:44:49;3.80;99.90
11540;DHT22;5826;54.756;9.192;2023-03-03T06:47:14;3.80;99.90
11540;DHT22;5826;54.756;9.192;2023-03-03T06:49:40;3.80;99.90
11540;DHT22;5826;54.756;9.192;2023-03-03T06:52:22;4.50;99.90
11540;DHT22;5826;54.756;9.192;2023-03-03T06:54:48;3.90;99.90
11540;DHT22;5826;54.756;9.192;2023-03-03T06:57:29;3.90;99.90
11540;DHT22;5826;54.756;9.192;2023-03-03T06:59:57;4.00;99.90
11540;DHT22;5826;54.756;9.192;2023-03-03T07:02:24;4.00;99.90
11540;DHT22;5826;54.756;9.192;2023-03-03T07:04:50;4.10;99.90
11540;DHT22;5826;54.756;9.192;2023-03-03T07:09:50;4.10;99.90
11540;DHT22;5826;54.756;9.192;2023-03-03T07:12:28;4.20;99.90
11540;DHT22;5826;54.756;9.192;2023-03-03T07:15:09;4.30;99.90
11540;DHT22;5826;54.756;9.192;2023-03-03T07:17:44;4.30;99.90
11540;DHT22;5826;54.756;9.192;2023-03-03T07:22:45;4.50;99.90
11540;DHT22;5826;54.756;9.192;2023-03-03T07:25:27;4.60;99.90
11540;DHT22;5826;54.756;9.192;2023-03-03T07:28:10;4.70;99.90
11540;DHT22;5826;54.756;9.192;2023-03-03T07:30:38;4.70;99.90
11540;DHT22;5826;54.756;9.192;2023-03-03T07:33:04;4.80;99.90
11540;DHT22;5826;54.756;9.192;2023-03-03T07:37:55;4.90;99.90
11540;DHT22;5826;54.756;9.192;2023-03-03T07:40:37;4.90;99.90
11540;DHT22;5826;54.756;9.192;2023-03-03T07:45:55;5.00;99.90
11540;DHT22;5826;54.756;9.192;2023-03-03T07:48:25;5.10;99.90
11540;DHT22;5826;54.756;9.192;2023-03-03T07:50:56;5.20;99.90
11540;DHT22;5826;54.756;9.192;2023-03-03T07:53:28;5.20;99.90
11540;DHT22;5826;54.756;9.192;2023-03-03T07:55:54;5.30;99.90
11540;DHT22;5826;54.756;9.192;2023-03-03T07:58:42;5.40;99.90
11540;DHT22;5826;54.756;9.192;2023-03-03T08:01:35;5.40;99.90
11540;DHT22;5826;54.756;9.192;2023-03-03T08:04:19;5.40;99.90
11540;DHT22;5826;54.756;9.192;2023-03-03T08:06:49;5.40;99.90
11540;DHT22;5826;54.756;9.192;2023-03-03T08:14:50;5.50;99.90
11540;DHT22;5826;54.756;9.192;2023-03-03T08:17:24;5.60;99.90
11540;DHT22;5826;54.756;9.192;2023-03-03T08:19:52;5.60;99.90
11540;DHT22;5826;54.756;9.192;2023-03-03T08:22:27;5.70;99.90
11540;DHT22;5826;54.756;9.192;2023-03-03T08:24:55;5.70;99.90
11540;DHT22;5826;54.756;9.192;2023-03-03T08:27:20;5.70;99.90
11540;DHT22;5826;54.756;9.192;2023-03-03T08:29:46;5.70;99.90
11540;DHT22;5826;54.756;9.192;2023-03-03T08:32:11;5.80;99.90
11540;DHT22;5826;54.756;9.192;2023-03-03T08:34:37;5.90;99.90
11540;DHT22;5826;54.756;9.192;2023-03-03T08:37:02;5.90;99.90
11540;DHT22;5826;54.756;9.192;2023-03-03T08:39:28;5.90;99.90
11540;DHT22;5826;54.756;9.192;2023-03-03T08:41:54;6.00;99.90
11540;DHT22;5826;54.756;9.192;2023-03-03T08:44:19;6.00;99.90
11540;DHT22;5826;54.756;9.192;2023-03-03T08:46:45;6.00;99.90
11540;DHT22;5826;54.756;9.192;2023-03-03T08:49:10;6.10;99.90
11540;DHT22;5826;54.756;9.192;2023-03-03T08:51:36;6.10;99.90
11540;DHT22;5826;54.756;9.192;2023-03-03T08:54:01;6.10;99.90
11540;DHT22;5826;54.756;9.192;2023-03-03T08:56:27;6.10;99.90
11540;DHT22;5826;54.756;9.192;2023-03-03T08:58:52;6.20;99.90
11540;DHT22;5826;54.756;9.192;2023-03-03T09:01:18;6.20;99.90
11540;DHT22;5826;54.756;9.192;2023-03-03T09:03:43;6.20;99.90
11540;DHT22;5826;54.756;9.192;2023-03-03T09:06:10;6.30;99.90
11540;DHT22;5826;54.756;9.192;2023-03-03T09:08:36;6.30;99.90
11540;DHT22;5826;54.756;9.192;2023-03-03T09:11:02;6.30;99.90
11540;DHT22;5826;54.756;9.192;2023-03-03T09:13:29;6.40;99.90
11540;DHT22;5826;54.756;9.192;2023-03-03T09:15:57;6.40;99.90
11540;DHT22;5826;54.756;9.192;2023-03-03T09:18:35;6.50;99.90
11540;DHT22;5826;54.756;9.192;2023-03-03T09:21:01;6.50;99.90
11540;DHT22;5826;54.756;9.192;2023-03-03T09:23:41;6.50;99.90
11540;DHT22;5826;54.756;9.192;2023-03-03T09:26:28;6.50;99.90
11540;DHT22;5826;54.756;9.192;2023-03-03T09:29:16;6.60;99.90
11540;DHT22;5826;54.756;9.192;2023-03-03T09:31:52;6.70;99.90
11540;DHT22;5826;54.756;9.192;2023-03-03T09:36:52;6.70;99.90
11540;DHT22;5826;54.756;9.192;2023-03-03T09:39:23;6.80;99.90
11540;DHT22;5826;54.756;9.192;2023-03-03T09:53:36;7.00;99.90
11540;DHT22;5826;54.756;9.192;2023-03-03T09:56:20;7.00;99.90
11540;DHT22;5826;54.756;9.192;2023-03-03T10:01:51;7.10;99.90
11540;DHT22;5826;54.756;9.192;2023-03-03T10:04:39;7.10;99.90
11540;DHT22;5826;54.756;9.192;2023-03-03T10:07:22;7.20;99.90
11540;DHT22;5826;54.756;9.192;2023-03-03T10:10:05;7.30;99.90
11540;DHT22;5826;54.756;9.192;2023-03-03T10:12:43;7.40;99.90
11540;DHT22;5826;54.756;9.192;2023-03-03T10:15:50;7.40;99.90
11540;DHT22;5826;54.756;9.192;2023-03-03T10:21:04;7.50;99.90
11540;DHT22;5826;54.756;9.192;2023-03-03T10:23:54;7.50;99.90
11540;DHT22;5826;54.756;9.192;2023-03-03T10:29:23;7.50;99.90
11540;DHT22;5826;54.756;9.192;2023-03-03T10:37:45;7.50;99.90
11540;DHT22;5826;54.756;9.192;2023-03-03T10:40:33;7.50;99.90
11540;DHT22;5826;54.756;9.192;2023-03-03T10:43:29;7.60;99.90
11540;DHT22;5826;54.756;9.192;2023-03-03T10:46:14;7.70;99.90
11540;DHT22;5826;54.756;9.192;2023-03-03T10:48:52;7.80;99.90
11540;DHT22;5826;54.756;9.192;2023-03-03T10:54:19;7.80;99.90
11540;DHT22;5826;54.756;9.192;2023-03-03T10:57:07;7.90;99.90
11540;DHT22;5826;54.756;9.192;2023-03-03T11:02:33;7.90;99.90
11540;DHT22;5826;54.756;9.192;2023-03-03T11:05:25;8.00;99.90
11540;DHT22;5826;54.756;9.192;2023-03-03T11:08:21;8.10;99.90
11540;DHT22;5826;54.756;9.192;2023-03-03T11:13:44;8.20;99.90
11540;DHT22;5826;54.756;9.192;2023-03-03T11:27:32;8.50;99.90
11540;DHT22;5826;54.756;9.192;2023-03-03T11:33:05;8.70;99.90
11540;DHT22;5826;54.756;9.192;2023-03-03T11:38:58;9.20;99.90
11540;DHT22;5826;54.756;9.192;2023-03-03T11:42:01;9.20;99.90
11540;DHT22;5826;54.756;9.192;2023-03-03T11:44:39;9.30;99.90
11540;DHT22;5826;54.756;9.192;2023-03-03T11:47:27;9.20;99.90
11540;DHT22;5826;54.756;9.192;2023-03-03T11:55:38;9.10;99.90
11540;DHT22;5826;54.756;9.192;2023-03-03T11:58:30;9.10;99.90
11540;DHT22;5826;54.756;9.192;2023-03-03T12:12:54;9.00;99.90
11540;DHT22;5826;54.756;9.192;2023-03-03T12:15:26;9.30;99.90
11540;DHT22;5826;54.756;9.192;2023-03-03T12:23:52;9.50;99.90
11540;DHT22;5826;54.756;9.192;2023-03-03T12:26:36;9.40;99.90
11540;DHT22;5826;54.756;9.192;2023-03-03T12:29:12;9.40;99.90
11540;DHT22;5826;54.756;9.192;2023-03-03T12:32:11;9.40;99.90
11540;DHT22;5826;54.756;9.192;2023-03-03T12:42:46;10.00;99.90
11540;DHT22;5826;54.756;9.192;2023-03-03T12:45:42;10.10;99.90
11540;DHT22;5826;54.756;9.192;2023-03-03T12:48:18;10.40;99.90
11540;DHT22;5826;54.756;9.192;2023-03-03T12:51:03;10.60;99.90
11540;DHT22;5826;54.756;9.192;2023-03-03T12:56:34;11.00;99.90
11540;DHT22;5826;54.756;9.192;2023-03-03T13:02:32;11.00;99.90
11540;DHT22;5826;54.756;9.192;2023-03-03T13:07:50;11.70;99.90
11540;DHT22;5826;54.756;9.192;2023-03-03T13:10:50;11.90;99.90
11540;DHT22;5826;54.756;9.192;2023-03-03T13:13:25;11.80;99.90
11540;DHT22;5826;54.756;9.192;2023-03-03T13:16:01;11.70;99.90
11540;DHT22;5826;54.756;9.192;2023-03-03T13:18:47;11.50;99.90
11540;DHT22;5826;54.756;9.192;2023-03-03T13:21:19;11.40;99.90
11540;DHT22;5826;54.756;9.192;2023-03-03T13:24:10;11.60;99.90
11540;DHT22;5826;54.756;9.192;2023-03-03T13:26:44;12.00;99.90
11540;DHT22;5826;54.756;9.192;2023-03-03T13:29:14;12.50;99.90
11540;DHT22;5826;54.756;9.192;2023-03-03T13:31:54;13.10;99.90
11540;DHT22;5826;54.756;9.192;2023-03-03T13:34:33;14.30;99.90
11540;DHT22;5826;54.756;9.192;2023-03-03T13:37:11;15.50;99.90
11540;DHT22;5826;54.756;9.192;2023-03-03T13:40:26;17.00;99.90
11540;DHT22;5826;54.756;9.192;2023-03-03T13:43:17;18.80;99.90
11540;DHT22;5826;54.756;9.192;2023-03-03T13:51:25;20.90;99.50
11540;DHT22;5826;54.756;9.192;2023-03-03T13:56:42;21.40;99.90
11540;DHT22;5826;54.756;9.192;2023-03-03T13:59:43;21.40;99.90
11540;DHT22;5826;54.756;9.192;2023-03-03T14:05:09;21.10;99.90
11540;DHT22;5826;54.756;9.192;2023-03-03T14:07:51;20.60;99.90
11540;DHT22;5826;54.756;9.192;2023-03-03T14:10:29;20.30;99.90
11540;DHT22;5826;54.756;9.192;2023-03-03T14:13:11;20.30;99.90
11540;DHT22;5826;54.756;9.192;2023-03-03T14:16:03;20.50;99.90
11540;DHT22;5826;54.756;9.192;2023-03-03T14:18:54;21.20;99.90
11540;DHT22;5826;54.756;9.192;2023-03-03T14:24:22;23.40;97.00
11540;DHT22;5826;54.756;9.192;2023-03-03T14:26:55;24.70;99.90
11540;DHT22;5826;54.756;9.192;2023-03-03T14:31:54;26.30;92.80
11540;DHT22;5826;54.756;9.192;2023-03-03T14:37:18;28.60;93.90
11540;DHT22;5826;54.756;9.192;2023-03-03T14:40:14;29.00;91.90
11540;DHT22;5826;54.756;9.192;2023-03-03T14:42:46;29.30;88.60
11540;DHT22;5826;54.756;9.192;2023-03-03T14:47:53;29.60;90.00
11540;DHT22;5826;54.756;9.192;2023-03-03T14:50:36;30.10;89.60
11540;DHT22;5826;54.756;9.192;2023-03-03T14:55:45;30.30;83.40
11540;DHT22;5826;54.756;9.192;2023-03-03T14:58:39;30.30;87.00
11540;DHT22;5826;54.756;9.192;2023-03-03T15:01:22;30.10;78.10
11540;DHT22;5826;54.756;9.192;2023-03-03T15:04:00;30.50;87.70
11540;DHT22;5826;54.756;9.192;2023-03-03T15:11:44;29.50;83.20
11540;DHT22;5826;54.756;9.192;2023-03-03T15:14:15;28.70;89.00
11540;DHT22;5826;54.756;9.192;2023-03-03T15:16:42;28.70;81.00
11540;DHT22;5826;54.756;9.192;2023-03-03T15:25:02;26.70;86.70
11540;DHT22;5826;54.756;9.192;2023-03-03T15:27:36;26.80;87.80
11540;DHT22;5826;54.756;9.192;2023-03-03T15:30:27;27.70;87.80
11540;DHT22;5826;54.756;9.192;2023-03-03T15:33:31;28.30;79.70
11540;DHT22;5826;54.756;9.192;2023-03-03T15:36:06;28.60;85.30
11540;DHT22;5826;54.756;9.192;2023-03-03T15:39:14;28.60;90.10
11540;DHT22;5826;54.756;9.192;2023-03-03T15:42:14;28.40;85.30
11540;DHT22;5826;54.756;9.192;2023-03-03T15:47:48;28.40;87.70
11540;DHT22;5826;54.756;9.192;2023-03-03T15:50:35;28.40;87.30
11540;DHT22;5826;54.756;9.192;2023-03-03T15:56:19;28.80;84.60
11540;DHT22;5826;54.756;9.192;2023-03-03T16:01:42;28.60;89.60
11540;DHT22;5826;54.756;9.192;2023-03-03T16:04:17;28.30;89.40
11540;DHT22;5826;54.756;9.192;2023-03-03T16:07:02;28.10;86.90
11540;DHT22;5826;54.756;9.192;2023-03-03T16:17:53;23.50;90.60
11540;DHT22;5826;54.756;9.192;2023-03-03T16:20:44;21.90;90.20
11540;DHT22;5826;54.756;9.192;2023-03-03T16:25:59;17.90;92.80
11540;DHT22;5826;54.756;9.192;2023-03-03T16:31:44;14.70;95.60
11540;DHT22;5826;54.756;9.192;2023-03-03T16:34:18;13.50;96.80
11540;DHT22;5826;54.756;9.192;2023-03-03T16:37:02;12.80;97.50
11540;DHT22;5826;54.756;9.192;2023-03-03T16:39:58;12.20;97.80
11540;DHT22;5826;54.756;9.192;2023-03-03T16:42:31;11.70;98.10
11540;DHT22;5826;54.756;9.192;2023-03-03T16:50:37;10.30;98.40
11540;DHT22;5826;54.756;9.192;2023-03-03T16:55:52;9.70;99.00
11540;DHT22;5826;54.756;9.192;2023-03-03T17:01:49;9.20;99.30
11540;DHT22;5826;54.756;9.192;2023-03-03T17:04:45;9.00;99.80
11540;DHT22;5826;54.756;9.192;2023-03-03T17:20:40;8.30;99.90
11540;DHT22;5826;54.756;9.192;2023-03-03T17:31:37;7.90;99.90
11540;DHT22;5826;54.756;9.192;2023-03-03T17:36:46;7.80;99.90
11540;DHT22;5826;54.756;9.192;2023-03-03T17:42:09;7.60;99.90
11540;DHT22;5826;54.756;9.192;2023-03-03T17:56:26;7.20;99.90
11540;DHT22;5826;54.756;9.192;2023-03-03T17:59:19;7.20;99.90
11540;DHT22;5826;54.756;9.192;2023-03-03T18:04:57;7.10;99.90
11540;DHT22;5826;54.756;9.192;2023-03-03T18:07:44;7.10;99.90
11540;DHT22;5826;54.756;9.192;2023-03-03T18:15:57;7.00;99.90
11540;DHT22;5826;54.756;9.192;2023-03-03T18:23:37;6.90;99.90
11540;DHT22;5826;54.756;9.192;2023-03-03T18:29:10;6.80;99.90
11540;DHT22;5826;54.756;9.192;2023-03-03T18:36:56;6.70;99.90
11540;DHT22;5826;54.756;9.192;2023-03-03T18:44:50;6.60;99.90
11540;DHT22;5826;54.756;9.192;2023-03-03T18:47:15;6.60;99.90
11540;DHT22;5826;54.756;9.192;2023-03-03T18:49:55;6.60;99.90
11540;DHT22;5826;54.756;9.192;2023-03-03T18:52:25;6.60;99.90
11540;DHT22;5826;54.756;9.192;2023-03-03T18:55:19;6.50;99.90
11540;DHT22;5826;54.756;9.192;2023-03-03T19:00:45;6.50;99.90
11540;DHT22;5826;54.756;9.192;2023-03-03T19:03:27;6.60;99.90
11540;DHT22;5826;54.756;9.192;2023-03-03T19:05:53;6.50;99.90
11540;DHT22;5826;54.756;9.192;2023-03-03T19:08:45;6.50;99.90
11540;DHT22;5826;54.756;9.192;2023-03-03T19:16:53;6.50;99.90
11540;DHT22;5826;54.756;9.192;2023-03-03T19:19:21;6.50;99.90
11540;DHT22;5826;54.756;9.192;2023-03-03T19:22:24;6.50;99.90
11540;DHT22;5826;54.756;9.192;2023-03-03T19:25:19;6.50;99.90
11540;DHT22;5826;54.756;9.192;2023-03-03T19:27:57;6.50;99.90
11540;DHT22;5826;54.756;9.192;2023-03-03T19:35:44;6.40;99.90
11540;DHT22;5826;54.756;9.192;2023-03-03T19:41:19;6.40;99.90
11540;DHT22;5826;54.756;9.192;2023-03-03T19:49:41;6.30;99.90
11540;DHT22;5826;54.756;9.192;2023-03-03T19:54:45;6.30;99.90
11540;DHT22;5826;54.756;9.192;2023-03-03T20:00:09;6.30;99.90
11540;DHT22;5826;54.756;9.192;2023-03-03T20:10:53;6.30;99.90
11540;DHT22;5826;54.756;9.192;2023-03-03T20:19:14;6.30;99.90
11540;DHT22;5826;54.756;9.192;2023-03-03T20:21:57;6.30;99.90
11540;DHT22;5826;54.756;9.192;2023-03-03T20:33:01;6.50;99.90
11540;DHT22;5826;54.756;9.192;2023-03-03T20:35:53;6.50;99.90
11540;DHT22;5826;54.756;9.192;2023-03-03T20:38:38;6.60;99.90
11540;DHT22;5826;54.756;9.192;2023-03-03T20:41:34;6.60;99.90
11540;DHT22;5826;54.756;9.192;2023-03-03T20:46:57;6.60;99.90
11540;DHT22;5826;54.756;9.192;2023-03-03T20:52:16;6.60;99.90
11540;DHT22;5826;54.756;9.192;2023-03-03T21:00:28;6.70;99.90
11540;DHT22;5826;54.756;9.192;2023-03-03T21:05:58;6.80;99.90
11540;DHT22;5826;54.756;9.192;2023-03-03T21:08:48;6.80;99.90
11540;DHT22;5826;54.756;9.192;2023-03-03T21:11:17;6.80;99.90
11540;DHT22;5826;54.756;9.192;2023-03-03T21:13:48;6.80;99.90
11540;DHT22;5826;54.756;9.192;2023-03-03T21:19:02;6.90;99.90
11540;DHT22;5826;54.756;9.192;2023-03-03T21:21:35;6.90;99.90
11540;DHT22;5826;54.756;9.192;2023-03-03T21:24:00;6.90;99.90
11540;DHT22;5826;54.756;9.192;2023-03-03T21:29:17;6.90;99.90
11540;DHT22;5826;54.756;9.192;2023-03-03T21:31:45;6.90;99.90
11540;DHT22;5826;54.756;9.192;2023-03-03T21:36:46;6.90;99.90
11540;DHT22;5826;54.756;9.192;2023-03-03T21:39:26;6.90;99.90
11540;DHT22;5826;54.756;9.192;2023-03-03T21:42:07;6.90;99.90
11540;DHT22;5826;54.756;9.192;2023-03-03T21:44:37;6.90;99.90
11540;DHT22;5826;54.756;9.192;2023-03-03T21:47:06;6.90;99.90
11540;DHT22;5826;54.756;9.192;2023-03-03T21:49:32;6.90;99.90
11540;DHT22;5826;54.756;9.192;2023-03-03T21:51:57;6.90;99.90
11540;DHT22;5826;54.756;9.192;2023-03-03T21:54:23;6.90;99.90
11540;DHT22;5826;54.756;9.192;2023-03-03T21:56:49;7.00;99.90
11540;DHT22;5826;54.756;9.192;2023-03-03T21:59:16;7.00;99.90
11540;DHT22;5826;54.756;9.192;2023-03-03T22:01:41;7.00;99.90
11540;DHT22;5826;54.756;9.192;2023-03-03T22:04:07;7.00;99.90
11540;DHT22;5826;54.756;9.192;2023-03-03T22:06:32;7.00;99.90
11540;DHT22;5826;54.756;9.192;2023-03-03T22:08:58;7.00;99.90
11540;DHT22;5826;54.756;9.192;2023-03-03T22:11:23;7.10;99.90